sensor_id;sensor_type;location;lat;lon;timestamp;P1;durP1;ratioP1;P2;durP2;ratioP2
74309;SDS011;62722;51.142;17.052;2023-04-16T00:00:29;22.45;;;14.10;;
74309;SDS011;62722;51.142;17.052;2023-04-16T00:03:18;27.58;;;14.68;;
74309;SDS011;62722;51.142;17.052;2023-04-16T00:05:46;28.58;;;15.07;;
74309;SDS011;62722;51.142;17.052;2023-04-16T00:08:13;30.20;;;15.57;;
74309;SDS011;62722;51.142;17.052;2023-04-16T00:10:41;28.60;;;14.38;;
74309;SDS011;62722;51.142;17.052;2023-04-16T00:13:09;23.58;;;13.52;;
74309;SDS011;62722;51.142;17.052;2023-04-16T00:15:39;27.45;;;14.43;;
74309;SDS011;62722;51.142;17.052;2023-04-16T00:18:06;32.00;;;15.10;;
74309;SDS011;62722;51.142;17.052;2023-04-16T00:20:36;27.77;;;15.68;;
74309;SDS011;62722;51.142;17.052;2023-04-16T00:23:04;27.73;;;16.08;;
74309;SDS011;62722;51.142;17.052;2023-04-16T00:25:31;28.63;;;15.25;;
74309;SDS011;62722;51.142;17.052;2023-04-16T00:27:58;29.45;;;14.80;;
74309;SDS011;62722;51.142;17.052;2023-04-16T00:30:25;28.05;;;15.57;;
74309;SDS011;62722;51.142;17.052;2023-04-16T00:32:53;29.65;;;15.52;;
74309;SDS011;62722;51.142;17.052;2023-04-16T00:35:20;30.30;;;15.50;;
74309;SDS011;62722;51.142;17.052;2023-04-16T00:37:49;30.55;;;16.63;;
74309;SDS011;62722;51.142;17.052;2023-04-16T00:40:16;30.85;;;15.88;;
74309;SDS011;62722;51.142;17.052;2023-04-16T00:42:44;30.48;;;15.95;;
74309;SDS011;62722;51.142;17.052;2023-04-16T00:45:11;31.70;;;16.13;;
74309;SDS011;62722;51.142;17.052;2023-04-16T00:47:39;28.25;;;16.40;;
74309;SDS011;62722;51.142;17.052;2023-04-16T00:50:06;29.80;;;15.95;;
74309;SDS011;62722;51.142;17.052;2023-04-16T00:52:34;29.05;;;16.00;;
74309;SDS011;62722;51.142;17.052;2023-04-16T00:55:03;29.98;;;16.17;;
74309;SDS011;62722;51.142;17.052;2023-04-16T00:57:32;31.70;;;16.13;;
74309;SDS011;62722;51.142;17.052;2023-04-16T00:59:59;30.73;;;15.85;;
74309;SDS011;62722;51.142;17.052;2023-04-16T01:02:26;31.08;;;16.48;;
74309;SDS011;62722;51.142;17.052;2023-04-16T01:04:54;31.15;;;15.88;;
74309;SDS011;62722;51.142;17.052;2023-04-16T01:07:21;31.70;;;16.35;;
74309;SDS011;62722;51.142;17.052;2023-04-16T01:09:48;30.38;;;16.05;;
74309;SDS011;62722;51.142;17.052;2023-04-16T01:12:17;27.52;;;15.52;;
74309;SDS011;62722;51.142;17.052;2023-04-16T01:14:44;32.03;;;15.27;;
74309;SDS011;62722;51.142;17.052;2023-04-16T01:17:12;30.83;;;17.45;;
74309;SDS011;62722;51.142;17.052;2023-04-16T01:19:41;35.97;;;16.58;;
74309;SDS011;62722;51.142;17.052;2023-04-16T01:22:13;27.88;;;15.32;;
74309;SDS011;62722;51.142;17.052;2023-04-16T01:24:40;30.48;;;16.48;;
74309;SDS011;62722;51.142;17.052;2023-04-16T01:27:09;27.10;;;14.07;;
74309;SDS011;62722;51.142;17.052;2023-04-16T01:29:36;30.42;;;14.23;;
74309;SDS011;62722;51.142;17.052;2023-04-16T01:32:04;26.80;;;14.85;;
74309;SDS011;62722;51.142;17.052;2023-04-16T01:34:31;29.45;;;15.35;;
74309;SDS011;62722;51.142;17.052;2023-04-16T01:36:58;31.48;;;15.05;;
74309;SDS011;62722;51.142;17.052;2023-04-16T01:39:27;29.42;;;15.43;;
74309;SDS011;62722;51.142;17.052;2023-04-16T01:41:55;26.98;;;15.35;;
74309;SDS011;62722;51.142;17.052;2023-04-16T01:44:22;32.20;;;16.25;;
74309;SDS011;62722;51.142;17.052;2023-04-16T01:46:50;29.23;;;15.15;;
74309;SDS011;62722;51.142;17.052;2023-04-16T01:49:17;28.15;;;14.93;;
74309;SDS011;62722;51.142;17.052;2023-04-16T01:51:45;30.58;;;15.48;;
74309;SDS011;62722;51.142;17.052;2023-04-16T01:54:12;29.08;;;15.25;;
74309;SDS011;62722;51.142;17.052;2023-04-16T01:56:41;25.73;;;14.45;;
74309;SDS011;62722;51.142;17.052;2023-04-16T01:59:08;28.67;;;15.02;;
74309;SDS011;62722;51.142;17.052;2023-04-16T02:01:37;29.23;;;16.08;;
74309;SDS011;62722;51.142;17.052;2023-04-16T02:04:04;29.00;;;15.40;;
74309;SDS011;62722;51.142;17.052;2023-04-16T02:06:32;30.50;;;14.73;;
74309;SDS011;62722;51.142;17.052;2023-04-16T02:09:00;26.88;;;13.73;;
74309;SDS011;62722;51.142;17.052;2023-04-16T02:11:29;29.58;;;15.60;;
74309;SDS011;62722;51.142;17.052;2023-04-16T02:14:00;28.45;;;15.32;;
74309;SDS011;62722;51.142;17.052;2023-04-16T02:19:05;27.15;;;14.07;;
74309;SDS011;62722;51.142;17.052;2023-04-16T02:21:34;26.35;;;14.73;;
74309;SDS011;62722;51.142;17.052;2023-04-16T02:24:04;30.98;;;15.23;;
74309;SDS011;62722;51.142;17.052;2023-04-16T02:26:34;28.35;;;15.07;;
74309;SDS011;62722;51.142;17.052;2023-04-16T02:29:05;27.23;;;15.02;;
74309;SDS011;62722;51.142;17.052;2023-04-16T02:31:34;26.85;;;14.40;;
74309;SDS011;62722;51.142;17.052;2023-04-16T02:34:04;29.83;;;14.73;;
74309;SDS011;62722;51.142;17.052;2023-04-16T02:36:33;27.23;;;14.30;;
74309;SDS011;62722;51.142;17.052;2023-04-16T02:39:01;28.05;;;14.60;;
74309;SDS011;62722;51.142;17.052;2023-04-16T02:41:29;28.52;;;15.10;;
74309;SDS011;62722;51.142;17.052;2023-04-16T02:43:59;28.02;;;15.13;;
74309;SDS011;62722;51.142;17.052;2023-04-16T02:46:30;25.88;;;14.57;;
74309;SDS011;62722;51.142;17.052;2023-04-16T02:49:02;24.13;;;14.45;;
74309;SDS011;62722;51.142;17.052;2023-04-16T02:51:32;26.75;;;13.75;;
74309;SDS011;62722;51.142;17.052;2023-04-16T02:54:05;27.80;;;14.65;;
74309;SDS011;62722;51.142;17.052;2023-04-16T02:56:34;25.85;;;14.40;;
74309;SDS011;62722;51.142;17.052;2023-04-16T02:59:02;29.25;;;13.98;;
74309;SDS011;62722;51.142;17.052;2023-04-16T03:01:32;27.00;;;13.50;;
74309;SDS011;62722;51.142;17.052;2023-04-16T03:04:00;25.75;;;14.45;;
74309;SDS011;62722;51.142;17.052;2023-04-16T03:06:30;26.30;;;13.40;;
74309;SDS011;62722;51.142;17.052;2023-04-16T03:08:57;25.27;;;14.05;;
74309;SDS011;62722;51.142;17.052;2023-04-16T03:11:25;26.80;;;13.25;;
74309;SDS011;62722;51.142;17.052;2023-04-16T03:13:52;28.80;;;14.52;;
74309;SDS011;62722;51.142;17.052;2023-04-16T03:16:19;25.40;;;13.50;;
74309;SDS011;62722;51.142;17.052;2023-04-16T03:18:48;37.00;;;17.20;;
74309;SDS011;62722;51.142;17.052;2023-04-16T03:21:16;33.30;;;15.82;;
74309;SDS011;62722;51.142;17.052;2023-04-16T03:23:43;28.15;;;14.60;;
74309;SDS011;62722;51.142;17.052;2023-04-16T03:26:11;29.35;;;14.20;;
74309;SDS011;62722;51.142;17.052;2023-04-16T03:28:38;29.48;;;15.13;;
74309;SDS011;62722;51.142;17.052;2023-04-16T03:31:05;26.33;;;13.57;;
74309;SDS011;62722;51.142;17.052;2023-04-16T03:33:32;27.13;;;13.50;;
74309;SDS011;62722;51.142;17.052;2023-04-16T03:36:01;26.42;;;13.32;;
74309;SDS011;62722;51.142;17.052;2023-04-16T03:38:29;24.98;;;13.88;;
74309;SDS011;62722;51.142;17.052;2023-04-16T03:40:56;23.23;;;12.45;;
74309;SDS011;62722;51.142;17.052;2023-04-16T03:43:23;26.50;;;13.15;;
74309;SDS011;62722;51.142;17.052;2023-04-16T03:45:51;24.20;;;13.70;;
74309;SDS011;62722;51.142;17.052;2023-04-16T03:48:18;24.25;;;12.95;;
74309;SDS011;62722;51.142;17.052;2023-04-16T03:50:45;25.92;;;12.98;;
74309;SDS011;62722;51.142;17.052;2023-04-16T03:53:14;23.13;;;12.95;;
74309;SDS011;62722;51.142;17.052;2023-04-16T03:55:42;24.42;;;13.45;;
74309;SDS011;62722;51.142;17.052;2023-04-16T03:58:10;24.73;;;13.05;;
74309;SDS011;62722;51.142;17.052;2023-04-16T04:00:40;22.55;;;12.60;;
74309;SDS011;62722;51.142;17.052;2023-04-16T04:03:07;30.20;;;13.73;;
74309;SDS011;62722;51.142;17.052;2023-04-16T04:05:35;22.98;;;12.95;;
74309;SDS011;62722;51.142;17.052;2023-04-16T04:08:03;25.95;;;12.82;;
74309;SDS011;62722;51.142;17.052;2023-04-16T04:10:33;24.42;;;12.23;;
74309;SDS011;62722;51.142;17.052;2023-04-16T04:13:01;24.98;;;13.18;;
74309;SDS011;62722;51.142;17.052;2023-04-16T04:15:30;25.48;;;12.32;;
74309;SDS011;62722;51.142;17.052;2023-04-16T04:17:57;26.27;;;13.57;;
74309;SDS011;62722;51.142;17.052;2023-04-16T04:20:25;29.05;;;13.75;;
74309;SDS011;62722;51.142;17.052;2023-04-16T04:22:52;28.60;;;14.40;;
74309;SDS011;62722;51.142;17.052;2023-04-16T04:25:20;27.60;;;13.82;;
74309;SDS011;62722;51.142;17.052;2023-04-16T04:27:49;27.00;;;14.02;;
74309;SDS011;62722;51.142;17.052;2023-04-16T04:30:16;24.10;;;12.60;;
74309;SDS011;62722;51.142;17.052;2023-04-16T04:32:43;25.30;;;12.82;;
74309;SDS011;62722;51.142;17.052;2023-04-16T04:35:11;24.50;;;13.38;;
74309;SDS011;62722;51.142;17.052;2023-04-16T04:37:38;25.65;;;12.85;;
74309;SDS011;62722;51.142;17.052;2023-04-16T04:40:06;28.77;;;14.00;;
74309;SDS011;62722;51.142;17.052;2023-04-16T04:42:35;24.00;;;14.48;;
74309;SDS011;62722;51.142;17.052;2023-04-16T04:45:05;27.58;;;13.85;;
74309;SDS011;62722;51.142;17.052;2023-04-16T04:47:33;26.67;;;13.18;;
74309;SDS011;62722;51.142;17.052;2023-04-16T04:50:01;24.05;;;13.10;;
74309;SDS011;62722;51.142;17.052;2023-04-16T04:52:28;28.20;;;13.27;;
74309;SDS011;62722;51.142;17.052;2023-04-16T04:54:56;24.17;;;13.05;;
74309;SDS011;62722;51.142;17.052;2023-04-16T04:57:23;26.70;;;12.93;;
74309;SDS011;62722;51.142;17.052;2023-04-16T04:59:51;24.65;;;12.18;;
74309;SDS011;62722;51.142;17.052;2023-04-16T05:02:19;26.23;;;12.65;;
74309;SDS011;62722;51.142;17.052;2023-04-16T05:04:47;22.98;;;12.38;;
74309;SDS011;62722;51.142;17.052;2023-04-16T05:07:14;25.90;;;12.55;;
74309;SDS011;62722;51.142;17.052;2023-04-16T05:09:42;29.65;;;13.02;;
74309;SDS011;62722;51.142;17.052;2023-04-16T05:12:09;28.38;;;13.90;;
74309;SDS011;62722;51.142;17.052;2023-04-16T05:14:37;28.38;;;13.27;;
74309;SDS011;62722;51.142;17.052;2023-04-16T05:17:04;28.45;;;13.70;;
74309;SDS011;62722;51.142;17.052;2023-04-16T05:19:34;31.98;;;14.77;;
74309;SDS011;62722;51.142;17.052;2023-04-16T05:22:01;32.88;;;15.98;;
74309;SDS011;62722;51.142;17.052;2023-04-16T05:24:28;32.28;;;16.15;;
74309;SDS011;62722;51.142;17.052;2023-04-16T05:26:55;32.47;;;17.30;;
74309;SDS011;62722;51.142;17.052;2023-04-16T05:29:23;29.92;;;15.88;;
74309;SDS011;62722;51.142;17.052;2023-04-16T05:31:51;30.42;;;15.88;;
74309;SDS011;62722;51.142;17.052;2023-04-16T05:34:18;28.50;;;14.82;;
74309;SDS011;62722;51.142;17.052;2023-04-16T05:36:47;28.60;;;13.70;;
74309;SDS011;62722;51.142;17.052;2023-04-16T05:39:15;27.13;;;14.23;;
74309;SDS011;62722;51.142;17.052;2023-04-16T05:41:43;27.92;;;13.93;;
74309;SDS011;62722;51.142;17.052;2023-04-16T05:44:10;29.23;;;14.18;;
74309;SDS011;62722;51.142;17.052;2023-04-16T05:46:39;27.05;;;13.63;;
74309;SDS011;62722;51.142;17.052;2023-04-16T05:49:07;24.05;;;12.88;;
74309;SDS011;62722;51.142;17.052;2023-04-16T05:51:36;23.55;;;12.10;;
74309;SDS011;62722;51.142;17.052;2023-04-16T05:54:05;22.38;;;12.52;;
74309;SDS011;62722;51.142;17.052;2023-04-16T05:56:32;21.95;;;12.18;;
74309;SDS011;62722;51.142;17.052;2023-04-16T05:59:00;22.13;;;11.90;;
74309;SDS011;62722;51.142;17.052;2023-04-16T06:01:27;23.02;;;12.63;;
74309;SDS011;62722;51.142;17.052;2023-04-16T06:03:54;27.05;;;12.90;;
74309;SDS011;62722;51.142;17.052;2023-04-16T06:06:22;27.33;;;13.13;;
74309;SDS011;62722;51.142;17.052;2023-04-16T06:08:49;28.92;;;13.48;;
74309;SDS011;62722;51.142;17.052;2023-04-16T06:11:18;24.75;;;12.75;;
74309;SDS011;62722;51.142;17.052;2023-04-16T06:13:46;25.65;;;13.23;;
74309;SDS011;62722;51.142;17.052;2023-04-16T06:16:13;27.40;;;14.93;;
74309;SDS011;62722;51.142;17.052;2023-04-16T06:18:44;28.17;;;14.68;;
74309;SDS011;62722;51.142;17.052;2023-04-16T06:21:11;28.08;;;13.27;;
74309;SDS011;62722;51.142;17.052;2023-04-16T06:23:39;28.98;;;14.68;;
74309;SDS011;62722;51.142;17.052;2023-04-16T06:26:06;29.50;;;14.75;;
74309;SDS011;62722;51.142;17.052;2023-04-16T06:28:36;28.85;;;15.25;;
74309;SDS011;62722;51.142;17.052;2023-04-16T06:31:03;30.58;;;15.18;;
74309;SDS011;62722;51.142;17.052;2023-04-16T06:33:31;28.52;;;15.65;;
74309;SDS011;62722;51.142;17.052;2023-04-16T06:35:58;26.50;;;14.82;;
74309;SDS011;62722;51.142;17.052;2023-04-16T06:38:25;31.90;;;15.80;;
74309;SDS011;62722;51.142;17.052;2023-04-16T06:40:52;30.25;;;15.57;;
74309;SDS011;62722;51.142;17.052;2023-04-16T06:43:21;31.55;;;16.58;;
74309;SDS011;62722;51.142;17.052;2023-04-16T06:45:50;30.23;;;15.82;;
74309;SDS011;62722;51.142;17.052;2023-04-16T06:48:17;32.00;;;15.55;;
74309;SDS011;62722;51.142;17.052;2023-04-16T06:50:44;34.58;;;16.55;;
74309;SDS011;62722;51.142;17.052;2023-04-16T06:53:12;32.88;;;16.45;;
74309;SDS011;62722;51.142;17.052;2023-04-16T06:55:39;33.65;;;17.15;;
74309;SDS011;62722;51.142;17.052;2023-04-16T06:58:07;30.42;;;16.17;;
74309;SDS011;62722;51.142;17.052;2023-04-16T07:00:34;31.77;;;16.90;;
74309;SDS011;62722;51.142;17.052;2023-04-16T07:03:04;32.75;;;16.02;;
74309;SDS011;62722;51.142;17.052;2023-04-16T07:05:31;30.65;;;15.48;;
74309;SDS011;62722;51.142;17.052;2023-04-16T07:07:59;29.38;;;14.73;;
74309;SDS011;62722;51.142;17.052;2023-04-16T07:10:26;31.25;;;15.93;;
74309;SDS011;62722;51.142;17.052;2023-04-16T07:12:55;30.05;;;15.30;;
74309;SDS011;62722;51.142;17.052;2023-04-16T07:15:23;29.23;;;14.95;;
74309;SDS011;62722;51.142;17.052;2023-04-16T07:17:51;30.95;;;15.68;;
74309;SDS011;62722;51.142;17.052;2023-04-16T07:20:25;27.73;;;14.52;;
74309;SDS011;62722;51.142;17.052;2023-04-16T07:22:52;28.13;;;14.80;;
74309;SDS011;62722;51.142;17.052;2023-04-16T07:25:20;31.33;;;15.45;;
74309;SDS011;62722;51.142;17.052;2023-04-16T07:27:47;31.50;;;14.95;;
74309;SDS011;62722;51.142;17.052;2023-04-16T07:30:15;29.10;;;14.38;;
74309;SDS011;62722;51.142;17.052;2023-04-16T07:32:43;30.45;;;14.65;;
74309;SDS011;62722;51.142;17.052;2023-04-16T07:35:10;31.63;;;15.85;;
74309;SDS011;62722;51.142;17.052;2023-04-16T07:37:40;32.95;;;16.05;;
74309;SDS011;62722;51.142;17.052;2023-04-16T07:40:07;31.33;;;14.65;;
74309;SDS011;62722;51.142;17.052;2023-04-16T07:42:35;32.47;;;15.43;;
74309;SDS011;62722;51.142;17.052;2023-04-16T07:45:03;29.60;;;15.35;;
74309;SDS011;62722;51.142;17.052;2023-04-16T07:47:31;33.95;;;16.67;;
74309;SDS011;62722;51.142;17.052;2023-04-16T07:49:58;32.97;;;13.75;;
74309;SDS011;62722;51.142;17.052;2023-04-16T07:52:26;29.10;;;14.65;;
74309;SDS011;62722;51.142;17.052;2023-04-16T07:54:55;27.98;;;14.52;;
74309;SDS011;62722;51.142;17.052;2023-04-16T07:57:22;27.15;;;13.70;;
74309;SDS011;62722;51.142;17.052;2023-04-16T07:59:50;32.85;;;15.07;;
74309;SDS011;62722;51.142;17.052;2023-04-16T08:02:18;31.17;;;15.00;;
74309;SDS011;62722;51.142;17.052;2023-04-16T08:04:46;30.85;;;13.73;;
74309;SDS011;62722;51.142;17.052;2023-04-16T08:07:14;30.23;;;14.02;;
74309;SDS011;62722;51.142;17.052;2023-04-16T08:09:46;27.52;;;13.80;;
74309;SDS011;62722;51.142;17.052;2023-04-16T08:12:16;26.75;;;13.10;;
74309;SDS011;62722;51.142;17.052;2023-04-16T08:14:43;28.95;;;14.85;;
74309;SDS011;62722;51.142;17.052;2023-04-16T08:17:11;27.77;;;13.68;;
74309;SDS011;62722;51.142;17.052;2023-04-16T08:19:38;27.65;;;13.30;;
74309;SDS011;62722;51.142;17.052;2023-04-16T08:22:06;25.75;;;13.40;;
74309;SDS011;62722;51.142;17.052;2023-04-16T08:24:33;28.48;;;13.95;;
74309;SDS011;62722;51.142;17.052;2023-04-16T08:27:01;24.52;;;13.27;;
74309;SDS011;62722;51.142;17.052;2023-04-16T08:29:30;26.00;;;12.98;;
74309;SDS011;62722;51.142;17.052;2023-04-16T08:31:57;25.58;;;12.60;;
74309;SDS011;62722;51.142;17.052;2023-04-16T08:34:25;25.70;;;12.95;;
74309;SDS011;62722;51.142;17.052;2023-04-16T08:36:52;25.20;;;12.23;;
74309;SDS011;62722;51.142;17.052;2023-04-16T08:39:20;22.73;;;11.30;;
74309;SDS011;62722;51.142;17.052;2023-04-16T08:41:47;22.25;;;11.23;;
74309;SDS011;62722;51.142;17.052;2023-04-16T08:44:18;22.42;;;10.73;;
74309;SDS011;62722;51.142;17.052;2023-04-16T08:46:49;23.77;;;12.02;;
74309;SDS011;62722;51.142;17.052;2023-04-16T08:49:21;20.83;;;11.00;;
74309;SDS011;62722;51.142;17.052;2023-04-16T08:51:50;16.20;;;8.80;;
74309;SDS011;62722;51.142;17.052;2023-04-16T08:54:20;17.08;;;8.30;;
74309;SDS011;62722;51.142;17.052;2023-04-16T08:56:57;18.27;;;9.57;;
74309;SDS011;62722;51.142;17.052;2023-04-16T08:59:25;19.13;;;9.68;;
74309;SDS011;62722;51.142;17.052;2023-04-16T09:01:56;22.75;;;10.27;;
74309;SDS011;62722;51.142;17.052;2023-04-16T09:04:25;18.45;;;9.98;;
74309;SDS011;62722;51.142;17.052;2023-04-16T09:06:53;16.95;;;8.75;;
74309;SDS011;62722;51.142;17.052;2023-04-16T09:09:21;17.80;;;9.13;;
74309;SDS011;62722;51.142;17.052;2023-04-16T09:11:50;17.15;;;8.23;;
74309;SDS011;62722;51.142;17.052;2023-04-16T09:14:18;14.45;;;7.47;;
74309;SDS011;62722;51.142;17.052;2023-04-16T09:16:46;12.00;;;7.10;;
74309;SDS011;62722;51.142;17.052;2023-04-16T09:19:16;15.27;;;7.65;;
74309;SDS011;62722;51.142;17.052;2023-04-16T09:21:44;15.15;;;7.55;;
74309;SDS011;62722;51.142;17.052;2023-04-16T09:24:13;12.40;;;7.25;;
74309;SDS011;62722;51.142;17.052;2023-04-16T09:26:40;12.77;;;6.80;;
74309;SDS011;62722;51.142;17.052;2023-04-16T09:29:09;13.52;;;7.78;;
74309;SDS011;62722;51.142;17.052;2023-04-16T09:31:36;13.77;;;7.63;;
74309;SDS011;62722;51.142;17.052;2023-04-16T09:34:04;12.27;;;6.57;;
74309;SDS011;62722;51.142;17.052;2023-04-16T09:36:34;14.10;;;6.85;;
74309;SDS011;62722;51.142;17.052;2023-04-16T09:39:02;11.75;;;6.72;;
74309;SDS011;62722;51.142;17.052;2023-04-16T09:41:30;14.82;;;7.00;;
74309;SDS011;62722;51.142;17.052;2023-04-16T09:44:01;13.32;;;6.80;;
74309;SDS011;62722;51.142;17.052;2023-04-16T09:46:30;12.05;;;6.28;;
74309;SDS011;62722;51.142;17.052;2023-04-16T09:49:04;13.27;;;7.30;;
74309;SDS011;62722;51.142;17.052;2023-04-16T09:51:39;11.20;;;6.38;;
74309;SDS011;62722;51.142;17.052;2023-04-16T09:54:06;12.43;;;6.90;;
74309;SDS011;62722;51.142;17.052;2023-04-16T09:56:38;13.27;;;7.05;;
74309;SDS011;62722;51.142;17.052;2023-04-16T09:59:08;11.20;;;6.47;;
74309;SDS011;62722;51.142;17.052;2023-04-16T10:01:42;13.32;;;6.85;;
74309;SDS011;62722;51.142;17.052;2023-04-16T10:04:11;12.35;;;6.57;;
74309;SDS011;62722;51.142;17.052;2023-04-16T10:06:40;10.45;;;6.00;;
74309;SDS011;62722;51.142;17.052;2023-04-16T10:09:08;10.52;;;5.38;;
74309;SDS011;62722;51.142;17.052;2023-04-16T10:11:36;10.63;;;5.05;;
74309;SDS011;62722;51.142;17.052;2023-04-16T10:14:04;8.20;;;4.28;;
74309;SDS011;62722;51.142;17.052;2023-04-16T10:16:31;8.07;;;4.28;;
74309;SDS011;62722;51.142;17.052;2023-04-16T10:18:59;7.55;;;3.97;;
74309;SDS011;62722;51.142;17.052;2023-04-16T10:21:27;7.72;;;4.05;;
74309;SDS011;62722;51.142;17.052;2023-04-16T10:23:59;7.15;;;3.47;;
74309;SDS011;62722;51.142;17.052;2023-04-16T10:26:27;8.45;;;4.50;;
74309;SDS011;62722;51.142;17.052;2023-04-16T10:28:55;8.18;;;4.53;;
74309;SDS011;62722;51.142;17.052;2023-04-16T10:31:24;7.78;;;4.28;;
74309;SDS011;62722;51.142;17.052;2023-04-16T10:33:52;6.40;;;3.47;;
74309;SDS011;62722;51.142;17.052;2023-04-16T10:36:22;4.82;;;2.50;;
74309;SDS011;62722;51.142;17.052;2023-04-16T10:38:51;4.13;;;2.45;;
74309;SDS011;62722;51.142;17.052;2023-04-16T10:41:20;5.80;;;2.60;;
74309;SDS011;62722;51.142;17.052;2023-04-16T10:43:48;4.25;;;2.20;;
74309;SDS011;62722;51.142;17.052;2023-04-16T10:46:17;6.15;;;2.70;;
74309;SDS011;62722;51.142;17.052;2023-04-16T10:48:46;5.07;;;2.78;;
74309;SDS011;62722;51.142;17.052;2023-04-16T10:51:23;4.25;;;2.42;;
74309;SDS011;62722;51.142;17.052;2023-04-16T10:53:54;3.75;;;2.08;;
74309;SDS011;62722;51.142;17.052;2023-04-16T10:56:24;3.28;;;1.63;;
74309;SDS011;62722;51.142;17.052;2023-04-16T10:58:52;2.35;;;0.95;;
74309;SDS011;62722;51.142;17.052;2023-04-16T11:01:27;2.33;;;1.35;;
74309;SDS011;62722;51.142;17.052;2023-04-16T11:03:57;2.42;;;1.00;;
74309;SDS011;62722;51.142;17.052;2023-04-16T11:06:26;2.33;;;1.20;;
74309;SDS011;62722;51.142;17.052;2023-04-16T11:08:54;3.25;;;1.45;;
74309;SDS011;62722;51.142;17.052;2023-04-16T11:11:21;3.20;;;1.80;;
74309;SDS011;62722;51.142;17.052;2023-04-16T11:13:54;3.40;;;1.80;;
74309;SDS011;62722;51.142;17.052;2023-04-16T11:18:50;3.17;;;1.20;;
74309;SDS011;62722;51.142;17.052;2023-04-16T11:21:17;4.35;;;2.00;;
74309;SDS011;62722;51.142;17.052;2023-04-16T11:23:46;4.63;;;2.17;;
74309;SDS011;62722;51.142;17.052;2023-04-16T11:26:26;2.65;;;1.80;;
74309;SDS011;62722;51.142;17.052;2023-04-16T11:28:55;4.03;;;2.05;;
74309;SDS011;62722;51.142;17.052;2023-04-16T11:31:23;5.25;;;2.45;;
74309;SDS011;62722;51.142;17.052;2023-04-16T11:33:51;3.58;;;2.00;;
74309;SDS011;62722;51.142;17.052;2023-04-16T11:36:21;3.88;;;2.35;;
74309;SDS011;62722;51.142;17.052;2023-04-16T11:38:50;4.53;;;2.70;;
74309;SDS011;62722;51.142;17.052;2023-04-16T11:41:28;5.55;;;2.55;;
74309;SDS011;62722;51.142;17.052;2023-04-16T11:43:56;5.70;;;2.80;;
74309;SDS011;62722;51.142;17.052;2023-04-16T11:46:24;5.50;;;2.60;;
74309;SDS011;62722;51.142;17.052;2023-04-16T11:49:03;4.10;;;2.42;;
74309;SDS011;62722;51.142;17.052;2023-04-16T11:51:31;5.28;;;2.67;;
74309;SDS011;62722;51.142;17.052;2023-04-16T11:53:58;4.57;;;2.28;;
74309;SDS011;62722;51.142;17.052;2023-04-16T11:56:26;5.68;;;2.90;;
74309;SDS011;62722;51.142;17.052;2023-04-16T11:59:06;4.65;;;2.53;;
74309;SDS011;62722;51.142;17.052;2023-04-16T12:01:38;5.05;;;2.83;;
74309;SDS011;62722;51.142;17.052;2023-04-16T12:04:06;6.20;;;3.40;;
74309;SDS011;62722;51.142;17.052;2023-04-16T12:06:34;4.53;;;2.75;;
74309;SDS011;62722;51.142;17.052;2023-04-16T12:11:52;4.70;;;2.65;;
74309;SDS011;62722;51.142;17.052;2023-04-16T12:14:19;6.82;;;3.88;;
74309;SDS011;62722;51.142;17.052;2023-04-16T12:16:47;5.30;;;2.72;;
74309;SDS011;62722;51.142;17.052;2023-04-16T12:19:14;5.65;;;2.78;;
74309;SDS011;62722;51.142;17.052;2023-04-16T12:21:42;4.82;;;3.20;;
74309;SDS011;62722;51.142;17.052;2023-04-16T12:24:13;4.88;;;2.63;;
74309;SDS011;62722;51.142;17.052;2023-04-16T12:26:43;5.05;;;2.75;;
74309;SDS011;62722;51.142;17.052;2023-04-16T12:29:17;5.40;;;3.00;;
74309;SDS011;62722;51.142;17.052;2023-04-16T12:31:46;4.65;;;3.13;;
74309;SDS011;62722;51.142;17.052;2023-04-16T12:34:15;6.13;;;2.88;;
74309;SDS011;62722;51.142;17.052;2023-04-16T12:36:43;4.03;;;2.80;;
74309;SDS011;62722;51.142;17.052;2023-04-16T12:39:12;6.55;;;3.13;;
74309;SDS011;62722;51.142;17.052;2023-04-16T12:41:41;4.60;;;2.75;;
74309;SDS011;62722;51.142;17.052;2023-04-16T12:44:11;9.52;;;5.55;;
74309;SDS011;62722;51.142;17.052;2023-04-16T12:46:44;4.05;;;2.60;;
74309;SDS011;62722;51.142;17.052;2023-04-16T12:49:11;4.15;;;2.40;;
74309;SDS011;62722;51.142;17.052;2023-04-16T12:51:39;4.55;;;2.90;;
74309;SDS011;62722;51.142;17.052;2023-04-16T12:54:08;6.38;;;4.43;;
74309;SDS011;62722;51.142;17.052;2023-04-16T12:56:37;6.43;;;3.55;;
74309;SDS011;62722;51.142;17.052;2023-04-16T12:59:04;10.75;;;7.15;;
74309;SDS011;62722;51.142;17.052;2023-04-16T13:01:35;5.10;;;2.58;;
74309;SDS011;62722;51.142;17.052;2023-04-16T13:04:03;5.10;;;2.63;;
74309;SDS011;62722;51.142;17.052;2023-04-16T13:06:32;10.88;;;6.05;;
74309;SDS011;62722;51.142;17.052;2023-04-16T13:09:01;5.20;;;3.00;;
74309;SDS011;62722;51.142;17.052;2023-04-16T13:11:29;4.03;;;2.15;;
74309;SDS011;62722;51.142;17.052;2023-04-16T13:13:56;3.60;;;2.42;;
74309;SDS011;62722;51.142;17.052;2023-04-16T13:16:24;3.67;;;2.15;;
74309;SDS011;62722;51.142;17.052;2023-04-16T13:18:52;5.45;;;2.85;;
74309;SDS011;62722;51.142;17.052;2023-04-16T13:21:21;3.58;;;2.10;;
74309;SDS011;62722;51.142;17.052;2023-04-16T13:23:48;4.28;;;2.20;;
74309;SDS011;62722;51.142;17.052;2023-04-16T13:26:16;4.07;;;2.30;;
74309;SDS011;62722;51.142;17.052;2023-04-16T13:28:44;5.55;;;2.85;;
74309;SDS011;62722;51.142;17.052;2023-04-16T13:31:12;4.82;;;2.75;;
74309;SDS011;62722;51.142;17.052;2023-04-16T13:33:44;4.25;;;2.72;;
74309;SDS011;62722;51.142;17.052;2023-04-16T13:36:12;4.25;;;2.53;;
74309;SDS011;62722;51.142;17.052;2023-04-16T13:38:42;4.03;;;2.45;;
74309;SDS011;62722;51.142;17.052;2023-04-16T13:41:10;3.80;;;2.28;;
74309;SDS011;62722;51.142;17.052;2023-04-16T13:43:38;4.78;;;2.72;;
74309;SDS011;62722;51.142;17.052;2023-04-16T13:46:06;5.00;;;2.70;;
74309;SDS011;62722;51.142;17.052;2023-04-16T13:48:33;5.57;;;2.85;;
74309;SDS011;62722;51.142;17.052;2023-04-16T13:51:01;4.80;;;3.00;;
74309;SDS011;62722;51.142;17.052;2023-04-16T13:53:29;5.18;;;2.90;;
74309;SDS011;62722;51.142;17.052;2023-04-16T13:56:06;4.22;;;2.58;;
74309;SDS011;62722;51.142;17.052;2023-04-16T13:58:34;4.45;;;2.67;;
74309;SDS011;62722;51.142;17.052;2023-04-16T14:01:02;3.97;;;2.13;;
74309;SDS011;62722;51.142;17.052;2023-04-16T14:03:30;3.42;;;2.10;;
74309;SDS011;62722;51.142;17.052;2023-04-16T14:06:00;3.97;;;1.88;;
74309;SDS011;62722;51.142;17.052;2023-04-16T14:08:27;3.13;;;2.00;;
74309;SDS011;62722;51.142;17.052;2023-04-16T14:10:56;3.30;;;1.80;;
74309;SDS011;62722;51.142;17.052;2023-04-16T14:13:25;3.90;;;1.90;;
74309;SDS011;62722;51.142;17.052;2023-04-16T14:15:53;3.88;;;1.90;;
74309;SDS011;62722;51.142;17.052;2023-04-16T14:18:20;3.28;;;1.90;;
74309;SDS011;62722;51.142;17.052;2023-04-16T14:20:48;2.85;;;1.92;;
74309;SDS011;62722;51.142;17.052;2023-04-16T14:23:17;3.75;;;2.08;;
74309;SDS011;62722;51.142;17.052;2023-04-16T14:25:44;3.58;;;2.20;;
74309;SDS011;62722;51.142;17.052;2023-04-16T14:28:11;3.35;;;2.00;;
74309;SDS011;62722;51.142;17.052;2023-04-16T14:30:41;3.47;;;2.08;;
74309;SDS011;62722;51.142;17.052;2023-04-16T14:33:08;3.25;;;1.90;;